^^
Saratoga-Weather Station Historical Data
Daily Summary for May 1, 2020 Units:  Both    English   Metric
Daily Weekly Monthly Yearly Custom
  High: Low: Average:
Temperature: 81.9 °F /  27.7 °C 51.6 °F /  10.9 °C 67.8 °F /  19.9 °C
Dew Point: 54.9 °F /  12.7 °C 43.9 °F /  6.6 °C 49.1 °F /  9.5 °C
Humidity: 76% 33% 53%
Wind Speed: 12.1mph /  19.5km/h - 2.2mph /  3.5km/h
Wind Gust: 14mph /  22.5km/h - -
Wind- - ESE
Pressure: 30.1 in /  1019.0 hPa 30 in /  1016.3 hPa -
Precipitation: 0 in /  0.0 mm    
Historical Graphs
 
 
Tabular Data for May 1, 2020
Time Temperature Dew Point Pressure Wind Wind Speed Wind Gust Humidity Rainfall Rate (Hourly) solar
00:04 59.5 °F /  15.3 °C 46 °F /  7.8 °C 30.1in /  1019.0hPa ENE 2mph /  3.2km/h 2mph /  3.2km/h 61% 0in /  0.0mm 0 W/m2
00:09 59.4 °F /  15.2 °C 46.4 °F /  8 °C 30.1in /  1019.0hPa Calm   1mph /  1.6km/h 62% 0in /  0.0mm 0 W/m2
00:14 59.2 °F /  15.1 °C 46.2 °F /  7.9 °C 30.1in /  1019.0hPa SSE 0.9mph /  1.4km/h 2mph /  3.2km/h 62% 0in /  0.0mm 0 W/m2
00:19 58.8 °F /  14.9 °C 45.9 °F /  7.7 °C 30.1in /  1019.0hPa Calm   1mph /  1.6km/h 62% 0in /  0.0mm 0 W/m2
00:24 58.6 °F /  14.8 °C 46 °F /  7.8 °C 30.1in /  1019.0hPa SSE 0.9mph /  1.4km/h 1mph /  1.6km/h 63% 0in /  0.0mm 0 W/m2
00:29 58.5 °F /  14.7 °C 45.9 °F /  7.7 °C 30.1in /  1019.0hPa Calm   2mph /  3.2km/h 63% 0in /  0.0mm 0 W/m2
00:34 58.3 °F /  14.6 °C 46.2 °F /  7.9 °C 30.1in /  1019.0hPa Calm   1mph /  1.6km/h 64% 0in /  0.0mm 0 W/m2
00:40 58.3 °F /  14.6 °C 46.2 °F /  7.9 °C 30.1in /  1019.0hPa SE 0.9mph /  1.4km/h 3mph /  4.8km/h 64% 0in /  0.0mm 0 W/m2
00:45 58.3 °F /  14.6 °C 46.2 °F /  7.9 °C 30.1in /  1019.0hPa ESE 0.9mph /  1.4km/h 1mph /  1.6km/h 64% 0in /  0.0mm 0 W/m2
00:50 58.3 °F /  14.6 °C 46.2 °F /  7.9 °C 30.1in /  1019.0hPa SE 0.9mph /  1.4km/h 1mph /  1.6km/h 64% 0in /  0.0mm 0 W/m2
00:55 58.3 °F /  14.6 °C 46.2 °F /  7.9 °C 30.1in /  1019.0hPa SE 0.9mph /  1.4km/h 2mph /  3.2km/h 64% 0in /  0.0mm 0 W/m2
01:00 57.9 °F /  14.4 °C 46.2 °F /  7.9 °C 30.1in /  1019.0hPa SE 0.9mph /  1.4km/h 2mph /  3.2km/h 65% 0in /  0.0mm 0 W/m2
01:05 57.7 °F /  14.3 °C 46 °F /  7.8 °C 30.1in /  1019.0hPa South 0.9mph /  1.4km/h 2mph /  3.2km/h 65% 0in /  0.0mm 0 W/m2
01:10 57.7 °F /  14.3 °C 46 °F /  7.8 °C 30.1in /  1019.0hPa SE 0.9mph /  1.4km/h 3mph /  4.8km/h 65% 0in /  0.0mm 0 W/m2
01:15 57.7 °F /  14.3 °C 45.7 °F /  7.6 °C 30.1in /  1019.0hPa Calm   2mph /  3.2km/h 64% 0in /  0.0mm 0 W/m2
01:20 57.6 °F /  14.2 °C 45.9 °F /  7.7 °C 30.1in /  1019.0hPa Calm   1mph /  1.6km/h 65% 0in /  0.0mm 0 W/m2
01:25 57.4 °F /  14.1 °C 45.7 °F /  7.6 °C 30.1in /  1019.0hPa SSE 2mph /  3.2km/h 3mph /  4.8km/h 65% 0in /  0.0mm 0 W/m2
01:30 57.4 °F /  14.1 °C 46 °F /  7.8 °C 30.1in /  1019.0hPa SSE 0.9mph /  1.4km/h 2mph /  3.2km/h 66% 0in /  0.0mm 0 W/m2
01:35 57 °F /  13.9 °C 45.9 °F /  7.7 °C 30.1in /  1019.0hPa SSE 0.9mph /  1.4km/h 3mph /  4.8km/h 66% 0in /  0.0mm 0 W/m2
01:40 56.8 °F /  13.8 °C 45.7 °F /  7.6 °C 30.1in /  1019.0hPa SSE 2mph /  3.2km/h 2mph /  3.2km/h 66% 0in /  0.0mm 0 W/m2
01:45 56.8 °F /  13.8 °C 45.7 °F /  7.6 °C 30.1in /  1019.0hPa SSE 0.9mph /  1.4km/h 2mph /  3.2km/h 66% 0in /  0.0mm 0 W/m2
01:50 56.7 °F /  13.7 °C 45.5 °F /  7.5 °C 30.1in /  1019.0hPa SSE 0.9mph /  1.4km/h 2mph /  3.2km/h 66% 0in /  0.0mm 0 W/m2
01:55 56.5 °F /  13.6 °C 45.7 °F /  7.6 °C 30.1in /  1019.0hPa Calm   2mph /  3.2km/h 67% 0in /  0.0mm 0 W/m2
02:00 56.1 °F /  13.4 °C 45.7 °F /  7.6 °C 30.1in /  1019.0hPa SSE 0.9mph /  1.4km/h 1mph /  1.6km/h 68% 0in /  0.0mm 0 W/m2
02:05 55.8 °F /  13.2 °C 45.3 °F /  7.4 °C 30.1in /  1019.0hPa SSE 0.9mph /  1.4km/h 2mph /  3.2km/h 68% 0in /  0.0mm 0 W/m2
02:10 55.6 °F /  13.1 °C 45.1 °F /  7.3 °C 30.1in /  1019.0hPa Calm     68% 0in /  0.0mm 0 W/m2
02:15 55.4 °F /  13 °C 45 °F /  7.2 °C 30.1in /  1019.0hPa ESE 0.9mph /  1.4km/h 3mph /  4.8km/h 68% 0in /  0.0mm 0 W/m2
02:20 55.6 °F /  13.1 °C 45.5 °F /  7.5 °C 30.1in /  1019.0hPa Calm   1mph /  1.6km/h 69% 0in /  0.0mm 0 W/m2
02:25 55.6 °F /  13.1 °C 45.1 °F /  7.3 °C 30.1in /  1019.0hPa Calm   1mph /  1.6km/h 68% 0in /  0.0mm 0 W/m2
02:30 55.8 °F /  13.2 °C 45.3 °F /  7.4 °C 30.1in /  1019.0hPa Calm   1mph /  1.6km/h 68% 0in /  0.0mm 0 W/m2
02:35 55.8 °F /  13.2 °C 45.3 °F /  7.4 °C 30.1in /  1019.0hPa Calm   1mph /  1.6km/h 68% 0in /  0.0mm 0 W/m2
02:41 55.6 °F /  13.1 °C 44.8 °F /  7.1 °C 30.1in /  1019.0hPa East 2mph /  3.2km/h 3mph /  4.8km/h 67% 0in /  0.0mm 0 W/m2
02:46 55.8 °F /  13.2 °C 45.3 °F /  7.4 °C 30.1in /  1019.0hPa Calm     68% 0in /  0.0mm 0 W/m2
02:51 55.6 °F /  13.1 °C 45.1 °F /  7.3 °C 30.1in /  1019.0hPa Calm   1mph /  1.6km/h 68% 0in /  0.0mm 0 W/m2
02:56 55.6 °F /  13.1 °C 45.1 °F /  7.3 °C 30.1in /  1019.0hPa Calm   1mph /  1.6km/h 68% 0in /  0.0mm 0 W/m2
03:01 55.2 °F /  12.9 °C 44.8 °F /  7.1 °C 30.1in /  1019.0hPa Calm   1mph /  1.6km/h 68% 0in /  0.0mm 0 W/m2
03:06 55.2 °F /  12.9 °C 45.1 °F /  7.3 °C 30.1in /  1019.0hPa Calm   1mph /  1.6km/h 69% 0in /  0.0mm 0 W/m2
03:11 55 °F /  12.8 °C 45.1 °F /  7.3 °C 30.1in /  1019.0hPa Calm   1mph /  1.6km/h 69% 0in /  0.0mm 0 W/m2
03:16 55 °F /  12.8 °C 45.1 °F /  7.3 °C 30.1in /  1019.0hPa Calm   3mph /  4.8km/h 69% 0in /  0.0mm 0 W/m2
03:21 54.9 °F /  12.7 °C 45 °F /  7.2 °C 30.1in /  1019.0hPa Calm     69% 0in /  0.0mm 0 W/m2
03:26 54.9 °F /  12.7 °C 45 °F /  7.2 °C 30.1in /  1019.0hPa Calm   3mph /  4.8km/h 69% 0in /  0.0mm 0 W/m2
03:31 54.3 °F /  12.4 °C 44.8 °F /  7.1 °C 30.1in /  1019.0hPa Calm   1mph /  1.6km/h 70% 0in /  0.0mm 0 W/m2
03:36 54.1 °F /  12.3 °C 45 °F /  7.2 °C 30.1in /  1019.0hPa Calm     71% 0in /  0.0mm 0 W/m2
03:41 54 °F /  12.2 °C 44.8 °F /  7.1 °C 30.1in /  1019.0hPa Calm     71% 0in /  0.0mm 0 W/m2
03:46 53.6 °F /  12 °C 44.4 °F /  6.9 °C 30.1in /  1019.0hPa Calm   1mph /  1.6km/h 71% 0in /  0.0mm 0 W/m2
03:51 53.4 °F /  11.9 °C 44.6 °F /  7 °C 30.1in /  1019.0hPa Calm   2mph /  3.2km/h 72% 0in /  0.0mm 0 W/m2
03:56 53.2 °F /  11.8 °C 44.4 °F /  6.9 °C 30.1in /  1019.0hPa Calm   1mph /  1.6km/h 72% 0in /  0.0mm 0 W/m2
04:01 53.1 °F /  11.7 °C 44.2 °F /  6.8 °C 30.1in /  1019.0hPa Calm   1mph /  1.6km/h 72% 0in /  0.0mm 0 W/m2
04:06 53.1 °F /  11.7 °C 44.2 °F /  6.8 °C 30.1in /  1019.0hPa Calm   1mph /  1.6km/h 72% 0in /  0.0mm 0 W/m2
04:11 52.9 °F /  11.6 °C 44.4 °F /  6.9 °C 30.1in /  1019.0hPa Calm   1mph /  1.6km/h 73% 0in /  0.0mm 0 W/m2
04:16 52.9 °F /  11.6 °C 44.4 °F /  6.9 °C 30.1in /  1019.0hPa Calm   1mph /  1.6km/h 73% 0in /  0.0mm 0 W/m2
04:21 52.7 °F /  11.5 °C 44.2 °F /  6.8 °C 30.1in /  1019.0hPa South 0.9mph /  1.4km/h 1mph /  1.6km/h 73% 0in /  0.0mm 0 W/m2
04:27 52.7 °F /  11.5 °C 44.2 °F /  6.8 °C 30.1in /  1019.0hPa Calm     73% 0in /  0.0mm 0 W/m2
04:32 52.5 °F /  11.4 °C 44.4 °F /  6.9 °C 30.1in /  1018.6hPa Calm   1mph /  1.6km/h 74% 0in /  0.0mm 0 W/m2
04:37 52.5 °F /  11.4 °C 44.1 °F /  6.7 °C 30.1in /  1018.6hPa South 0.9mph /  1.4km/h 1mph /  1.6km/h 73% 0in /  0.0mm 0 W/m2
04:42 52.5 °F /  11.4 °C 44.4 °F /  6.9 °C 30.1in /  1018.6hPa South 0.9mph /  1.4km/h 1mph /  1.6km/h 74% 0in /  0.0mm 0 W/m2
04:47 52.3 °F /  11.3 °C 44.2 °F /  6.8 °C 30.1in /  1018.6hPa South 0.9mph /  1.4km/h 2mph /  3.2km/h 74% 0in /  0.0mm 0 W/m2
04:52 52.3 °F /  11.3 °C 44.2 °F /  6.8 °C 30.1in /  1018.6hPa Calm   1mph /  1.6km/h 74% 0in /  0.0mm 0 W/m2
04:57 52.2 °F /  11.2 °C 44.4 °F /  6.9 °C 30.1in /  1018.6hPa Calm     75% 0in /  0.0mm 0 W/m2
05:02 52 °F /  11.1 °C 44.2 °F /  6.8 °C 30.1in /  1018.6hPa Calm   1mph /  1.6km/h 75% 0in /  0.0mm 0 W/m2
05:07 51.8 °F /  11 °C 44.1 °F /  6.7 °C 30.1in /  1018.6hPa Calm     75% 0in /  0.0mm 0 W/m2
05:12 51.6 °F /  10.9 °C 43.9 °F /  6.6 °C 30.1in /  1018.6hPa South 0.9mph /  1.4km/h 2mph /  3.2km/h 75% 0in /  0.0mm 0 W/m2
05:17 51.8 °F /  11 °C 44.4 °F /  6.9 °C 30.1in /  1018.6hPa Calm   1mph /  1.6km/h 76% 0in /  0.0mm 0 W/m2
05:22 51.8 °F /  11 °C 44.4 °F /  6.9 °C 30.1in /  1018.6hPa Calm     76% 0in /  0.0mm 0 W/m2
05:27 52 °F /  11.1 °C 44.2 °F /  6.8 °C 30.1in /  1018.6hPa Calm   1mph /  1.6km/h 75% 0in /  0.0mm 0 W/m2
05:32 52 °F /  11.1 °C 44.2 °F /  6.8 °C 30.1in /  1018.6hPa Calm   1mph /  1.6km/h 75% 0in /  0.0mm 0 W/m2
05:37 52 °F /  11.1 °C 44.6 °F /  7 °C 30.1in /  1018.6hPa South 0.9mph /  1.4km/h 2mph /  3.2km/h 76% 0in /  0.0mm 5 W/m2
05:42 52 °F /  11.1 °C 44.2 °F /  6.8 °C 30.1in /  1018.6hPa Calm   1mph /  1.6km/h 75% 0in /  0.0mm 7 W/m2
05:47 52.2 °F /  11.2 °C 44.4 °F /  6.9 °C 30.1in /  1018.6hPa South 2mph /  3.2km/h 2mph /  3.2km/h 75% 0in /  0.0mm 9 W/m2
05:52 52.2 °F /  11.2 °C 44.4 °F /  6.9 °C 30.1in /  1018.6hPa Calm   1mph /  1.6km/h 75% 0in /  0.0mm 11 W/m2
05:57 52.3 °F /  11.3 °C 44.2 °F /  6.8 °C 30.1in /  1018.6hPa SSE 0.9mph /  1.4km/h 1mph /  1.6km/h 74% 0in /  0.0mm 12 W/m2
06:02 52.5 °F /  11.4 °C 44.4 °F /  6.9 °C 30.1in /  1018.6hPa Calm     74% 0in /  0.0mm 14 W/m2
06:07 52.9 °F /  11.6 °C 44.8 °F /  7.1 °C 30.1in /  1018.6hPa Calm   1mph /  1.6km/h 74% 0in /  0.0mm 16 W/m2
06:12 53.1 °F /  11.7 °C 44.6 °F /  7 °C 30.1in /  1018.6hPa Calm     73% 0in /  0.0mm 18 W/m2
06:17 53.2 °F /  11.8 °C 44.8 °F /  7.1 °C 30.1in /  1018.6hPa Calm   2mph /  3.2km/h 73% 0in /  0.0mm 19 W/m2
06:22 53.4 °F /  11.9 °C 45 °F /  7.2 °C 30.1in /  1018.6hPa Calm     73% 0in /  0.0mm 21 W/m2
06:27 53.8 °F /  12.1 °C 45 °F /  7.2 °C 30.1in /  1018.6hPa Calm   1mph /  1.6km/h 72% 0in /  0.0mm 23 W/m2
06:32 54.1 °F /  12.3 °C 44.6 °F /  7 °C 30.1in /  1018.6hPa ENE 2mph /  3.2km/h 3mph /  4.8km/h 70% 0in /  0.0mm 25 W/m2
06:38 54.7 °F /  12.6 °C 44.8 °F /  7.1 °C 30.1in /  1018.6hPa East 2mph /  3.2km/h 2mph /  3.2km/h 69% 0in /  0.0mm 26 W/m2
06:43 55 °F /  12.8 °C 44.6 °F /  7 °C 30.1in /  1018.6hPa Calm   2mph /  3.2km/h 68% 0in /  0.0mm 26 W/m2
06:48 55.2 °F /  12.9 °C 44.8 °F /  7.1 °C 30.1in /  1018.6hPa Calm   1mph /  1.6km/h 68% 0in /  0.0mm 28 W/m2
06:53 55.6 °F /  13.1 °C 45.1 °F /  7.3 °C 30.1in /  1018.3hPa East 0.9mph /  1.4km/h 2mph /  3.2km/h 68% 0in /  0.0mm 28 W/m2
06:58 55.8 °F /  13.2 °C 45 °F /  7.2 °C 30.1in /  1018.6hPa Calm   2mph /  3.2km/h 67% 0in /  0.0mm 30 W/m2
07:03 55.9 °F /  13.3 °C 45.1 °F /  7.3 °C 30.1in /  1018.6hPa ESE 0.9mph /  1.4km/h 2mph /  3.2km/h 67% 0in /  0.0mm 32 W/m2
07:08 56.1 °F /  13.4 °C 45.3 °F /  7.4 °C 30.1in /  1018.6hPa NE 2mph /  3.2km/h 4mph /  6.4km/h 67% 0in /  0.0mm 32 W/m2
07:13 56.1 °F /  13.4 °C 45.3 °F /  7.4 °C 30.1in /  1018.6hPa Calm   1mph /  1.6km/h 67% 0in /  0.0mm 33 W/m2
07:18 56.5 °F /  13.6 °C 45.7 °F /  7.6 °C 30.1in /  1018.6hPa North 2mph /  3.2km/h 3mph /  4.8km/h 67% 0in /  0.0mm 33 W/m2
07:23 56.5 °F /  13.6 °C 45.7 °F /  7.6 °C 30.1in /  1018.6hPa ESE 2mph /  3.2km/h 4mph /  6.4km/h 67% 0in /  0.0mm 35 W/m2
07:28 56.7 °F /  13.7 °C 45.9 °F /  7.7 °C 30.1in /  1018.6hPa East 2mph /  3.2km/h 2mph /  3.2km/h 67% 0in /  0.0mm 35 W/m2
07:33 56.8 °F /  13.8 °C 46 °F /  7.8 °C 30.1in /  1018.6hPa East 0.9mph /  1.4km/h 2mph /  3.2km/h 67% 0in /  0.0mm 37 W/m2
07:39 57 °F /  13.9 °C 46.2 °F /  7.9 °C 30.1in /  1018.6hPa East 2.9mph /  4.7km/h 5mph /  8km/h 67% 0in /  0.0mm 95 W/m2
07:44 57.4 °F /  14.1 °C 46.6 °F /  8.1 °C 30.1in /  1019.0hPa ENE 0.9mph /  1.4km/h 3mph /  4.8km/h 67% 0in /  0.0mm 223 W/m2
07:49 57.9 °F /  14.4 °C 46.6 °F /  8.1 °C 30.1in /  1019.0hPa ESE 0.9mph /  1.4km/h 6mph /  9.7km/h 66% 0in /  0.0mm 244 W/m2
07:54 58.8 °F /  14.9 °C 47.1 °F /  8.4 °C 30.1in /  1019.0hPa ENE 4mph /  6.4km/h 4mph /  6.4km/h 65% 0in /  0.0mm 260 W/m2
07:59 59.5 °F /  15.3 °C 46.9 °F /  8.3 °C 30.1in /  1019.0hPa ENE 2.9mph /  4.7km/h 6mph /  9.7km/h 63% 0in /  0.0mm 272 W/m2
08:04 60.3 °F /  15.7 °C 47.1 °F /  8.4 °C 30.1in /  1019.0hPa Calm   2mph /  3.2km/h 62% 0in /  0.0mm 287 W/m2
08:09 61.2 °F /  16.2 °C 47.7 °F /  8.7 °C 30.1in /  1019.0hPa ENE 0.9mph /  1.4km/h 6mph /  9.7km/h 61% 0in /  0.0mm 302 W/m2
08:14 62.1 °F /  16.7 °C 47.5 °F /  8.6 °C 30.1in /  1019.0hPa ENE 2mph /  3.2km/h 7mph /  11.3km/h 59% 0in /  0.0mm 315 W/m2
08:19 62.4 °F /  16.9 °C 47.5 °F /  8.6 °C 30.1in /  1019.0hPa East 6mph /  9.7km/h 9mph /  14.5km/h 58% 0in /  0.0mm 329 W/m2
08:24 62.6 °F /  17 °C 47.7 °F /  8.7 °C 30.1in /  1019.0hPa NE 2.9mph /  4.7km/h 4mph /  6.4km/h 58% 0in /  0.0mm 343 W/m2
08:29 62.4 °F /  16.9 °C 47.8 °F /  8.8 °C 30.1in /  1019.0hPa North 2mph /  3.2km/h 9mph /  14.5km/h 59% 0in /  0.0mm 353 W/m2
08:34 62.2 °F /  16.8 °C 47.3 °F /  8.5 °C 30.1in /  1019.0hPa SE 0.9mph /  1.4km/h 6mph /  9.7km/h 58% 0in /  0.0mm 367 W/m2
08:39 62.6 °F /  17 °C 47.7 °F /  8.7 °C 30.1in /  1019.0hPa ENE 2.9mph /  4.7km/h 5mph /  8km/h 58% 0in /  0.0mm 383 W/m2
08:44 62.8 °F /  17.1 °C 47.8 °F /  8.8 °C 30.1in /  1019.0hPa North 2mph /  3.2km/h 3mph /  4.8km/h 58% 0in /  0.0mm 394 W/m2
08:49 63.1 °F /  17.3 °C 48.2 °F /  9 °C 30.1in /  1019.0hPa NNW 4mph /  6.4km/h 10mph /  16.1km/h 58% 0in /  0.0mm 408 W/m2
08:54 63.3 °F /  17.4 °C 47.8 °F /  8.8 °C 30.1in /  1019.0hPa NE 0.9mph /  1.4km/h 4mph /  6.4km/h 57% 0in /  0.0mm 420 W/m2
08:59 63.9 °F /  17.7 °C 48.4 °F /  9.1 °C 30.1in /  1019.0hPa NE 4mph /  6.4km/h 9mph /  14.5km/h 57% 0in /  0.0mm 438 W/m2
09:04 63.9 °F /  17.7 °C 47.8 °F /  8.8 °C 30.1in /  1019.0hPa NE 2.9mph /  4.7km/h 4mph /  6.4km/h 56% 0in /  0.0mm 450 W/m2
09:09 64 °F /  17.8 °C 48.6 °F /  9.2 °C 30.1in /  1019.0hPa NE 4mph /  6.4km/h 7mph /  11.3km/h 57% 0in /  0.0mm 464 W/m2
09:14 64.6 °F /  18.1 °C 48.9 °F /  9.4 °C 30.1in /  1019.0hPa Calm   8mph /  12.9km/h 57% 0in /  0.0mm 476 W/m2
09:19 64.9 °F /  18.3 °C 48.9 °F /  9.4 °C 30.1in /  1019.0hPa NNE 2mph /  3.2km/h 6mph /  9.7km/h 56% 0in /  0.0mm 489 W/m2
09:24 65.3 °F /  18.5 °C 49.6 °F /  9.8 °C 30.1in /  1019.0hPa NNE 4.9mph /  7.9km/h 7mph /  11.3km/h 57% 0in /  0.0mm 499 W/m2
09:29 65.7 °F /  18.7 °C 49.5 °F /  9.7 °C 30.1in /  1019.0hPa SE 2.9mph /  4.7km/h 6mph /  9.7km/h 56% 0in /  0.0mm 515 W/m2
09:34 66 °F /  18.9 °C 49.5 °F /  9.7 °C 30.1in /  1019.0hPa NE 2.9mph /  4.7km/h 10mph /  16.1km/h 55% 0in /  0.0mm 529 W/m2
09:39 66.4 °F /  19.1 °C 50.2 °F /  10.1 °C 30.1in /  1019.0hPa ESE 2mph /  3.2km/h 6mph /  9.7km/h 56% 0in /  0.0mm 541 W/m2
09:44 67.1 °F /  19.5 °C 49.8 °F /  9.9 °C 30.1in /  1019.0hPa East 6mph /  9.7km/h 7mph /  11.3km/h 54% 0in /  0.0mm 552 W/m2
09:49 67.5 °F /  19.7 °C 50.2 °F /  10.1 °C 30.1in /  1019.0hPa NE 6.9mph /  11.1km/h 7mph /  11.3km/h 54% 0in /  0.0mm 564 W/m2
09:55 67.6 °F /  19.8 °C 50.4 °F /  10.2 °C 30.1in /  1018.6hPa SE 8.9mph /  14.3km/h 9mph /  14.5km/h 54% 0in /  0.0mm 578 W/m2
10:00 67.8 °F /  19.9 °C 50 °F /  10 °C 30.1in /  1018.6hPa East 0.9mph /  1.4km/h 9mph /  14.5km/h 53% 0in /  0.0mm 552 W/m2
10:05 68 °F /  20 °C 50.7 °F /  10.4 °C 30.1in /  1018.6hPa SSE 2mph /  3.2km/h 8mph /  12.9km/h 54% 0in /  0.0mm 54 W/m2
10:10 68.4 °F /  20.2 °C 50.5 °F /  10.3 °C 30.1in /  1018.6hPa NE 6.9mph /  11.1km/h 10mph /  16.1km/h 53% 0in /  0.0mm 93 W/m2
10:15 68.7 °F /  20.4 °C 50.9 °F /  10.5 °C 30.1in /  1018.6hPa East 10.1mph /  16.3km/h 12mph /  19.3km/h 53% 0in /  0.0mm 624 W/m2
10:20 69.1 °F /  20.6 °C 51.8 °F /  11 °C 30.1in /  1018.6hPa NE 8.9mph /  14.3km/h 10mph /  16.1km/h 54% 0in /  0.0mm 636 W/m2
10:25 69.3 °F /  20.7 °C 51.4 °F /  10.8 °C 30.1in /  1018.6hPa ESE 2.9mph /  4.7km/h 12mph /  19.3km/h 53% 0in /  0.0mm 650 W/m2
10:30 69.6 °F /  20.9 °C 51.3 °F /  10.7 °C 30.1in /  1018.6hPa East 4mph /  6.4km/h 7mph /  11.3km/h 52% 0in /  0.0mm 663 W/m2
10:35 70 °F /  21.1 °C 51.6 °F /  10.9 °C 30.1in /  1018.6hPa ESE 2mph /  3.2km/h 8mph /  12.9km/h 52% 0in /  0.0mm 670 W/m2
10:40 70 °F /  21.1 °C 51.1 °F /  10.6 °C 30.1in /  1018.6hPa SE 4mph /  6.4km/h 14mph /  22.5km/h 51% 0in /  0.0mm 682 W/m2
10:45 70.2 °F /  21.2 °C 51.3 °F /  10.7 °C 30.1in /  1018.6hPa SSE 0.9mph /  1.4km/h 3mph /  4.8km/h 51% 0in /  0.0mm 693 W/m2
10:50 70.5 °F /  21.4 °C 51.4 °F /  10.8 °C 30.1in /  1018.3hPa NE 4mph /  6.4km/h 12mph /  19.3km/h 51% 0in /  0.0mm 700 W/m2
10:55 70.9 °F /  21.6 °C 51.3 °F /  10.7 °C 30.1in /  1018.3hPa SSE 2mph /  3.2km/h 5mph /  8km/h 50% 0in /  0.0mm 714 W/m2
11:00 71.2 °F /  21.8 °C 51.6 °F /  10.9 °C 30.1in /  1018.3hPa SSE 4mph /  6.4km/h 8mph /  12.9km/h 50% 0in /  0.0mm 724 W/m2
11:05 71.6 °F /  22 °C 52 °F /  11.1 °C 30.1in /  1018.6hPa ENE 2mph /  3.2km/h 7mph /  11.3km/h 50% 0in /  0.0mm 735 W/m2
11:10 72 °F /  22.2 °C 52.3 °F /  11.3 °C 30.1in /  1018.3hPa NW 0.9mph /  1.4km/h 7mph /  11.3km/h 50% 0in /  0.0mm 742 W/m2
11:15 72.3 °F /  22.4 °C 51.4 °F /  10.8 °C 30.1in /  1018.6hPa ENE 4.9mph /  7.9km/h 9mph /  14.5km/h 48% 0in /  0.0mm 751 W/m2
11:20 72.1 °F /  22.3 °C 52 °F /  11.1 °C 30.1in /  1018.3hPa NE 4mph /  6.4km/h 6mph /  9.7km/h 49% 0in /  0.0mm 759 W/m2
11:25 72.1 °F /  22.3 °C 52 °F /  11.1 °C 30.1in /  1018.3hPa East 2.9mph /  4.7km/h 7mph /  11.3km/h 49% 0in /  0.0mm 772 W/m2
11:30 72.1 °F /  22.3 °C 51.4 °F /  10.8 °C 30.1in /  1018.3hPa ENE 4mph /  6.4km/h 12mph /  19.3km/h 48% 0in /  0.0mm 777 W/m2
11:35 72.1 °F /  22.3 °C 51.4 °F /  10.8 °C 30.1in /  1018.6hPa ENE 2mph /  3.2km/h 4mph /  6.4km/h 48% 0in /  0.0mm 782 W/m2
11:40 72.5 °F /  22.5 °C 51.6 °F /  10.9 °C 30.1in /  1018.6hPa NE 8.9mph /  14.3km/h 12mph /  19.3km/h 48% 0in /  0.0mm 791 W/m2
11:45 72.5 °F /  22.5 °C 52.3 °F /  11.3 °C 30.1in /  1018.6hPa East 4mph /  6.4km/h 6mph /  9.7km/h 49% 0in /  0.0mm 800 W/m2
11:50 72.7 °F /  22.6 °C 51.3 °F /  10.7 °C 30.1in /  1018.6hPa SSW 4.9mph /  7.9km/h 12mph /  19.3km/h 47% 0in /  0.0mm 805 W/m2
11:55 72.9 °F /  22.7 °C 52 °F /  11.1 °C 30.1in /  1018.6hPa ENE 2.9mph /  4.7km/h 8mph /  12.9km/h 48% 0in /  0.0mm 814 W/m2
12:00 73 °F /  22.8 °C 52.7 °F /  11.5 °C 30.1in /  1018.6hPa ENE 2mph /  3.2km/h 12mph /  19.3km/h 49% 0in /  0.0mm 819 W/m2
12:05 73.2 °F /  22.9 °C 52.9 °F /  11.6 °C 30.1in /  1018.3hPa SSE 2mph /  3.2km/h 5mph /  8km/h 49% 0in /  0.0mm 824 W/m2
12:10 73.8 °F /  23.2 °C 52.9 °F /  11.6 °C 30.1in /  1018.6hPa ENE 4.9mph /  7.9km/h 9mph /  14.5km/h 48% 0in /  0.0mm 828 W/m2
12:15 73.9 °F /  23.3 °C 52.5 °F /  11.4 °C 30.1in /  1018.6hPa North 8.9mph /  14.3km/h 9mph /  14.5km/h 47% 0in /  0.0mm 838 W/m2
12:20 74.3 °F /  23.5 °C 52.7 °F /  11.5 °C 30.1in /  1018.3hPa NE 2.9mph /  4.7km/h 4mph /  6.4km/h 47% 0in /  0.0mm 842 W/m2
12:25 74.7 °F /  23.7 °C 53.1 °F /  11.7 °C 30.1in /  1018.3hPa NNW 2mph /  3.2km/h 9mph /  14.5km/h 47% 0in /  0.0mm 851 W/m2
12:30 74.7 °F /  23.7 °C 52.5 °F /  11.4 °C 30.1in /  1018.3hPa NW 0.9mph /  1.4km/h 4mph /  6.4km/h 46% 0in /  0.0mm 853 W/m2
12:35 74.8 °F /  23.8 °C 52.7 °F /  11.5 °C 30.1in /  1018.3hPa NNE 11mph /  17.7km/h 11mph /  17.7km/h 46% 0in /  0.0mm 858 W/m2
12:40 75 °F /  23.9 °C 53.4 °F /  11.9 °C 30.1in /  1018.3hPa East 6.9mph /  11.1km/h 8mph /  12.9km/h 47% 0in /  0.0mm 856 W/m2
12:45 75.4 °F /  24.1 °C 53.2 °F /  11.8 °C 30.1in /  1018.3hPa NE 2mph /  3.2km/h 9mph /  14.5km/h 46% 0in /  0.0mm 863 W/m2
12:50 75.4 °F /  24.1 °C 52 °F /  11.1 °C 30.1in /  1018.0hPa East 2.9mph /  4.7km/h 9mph /  14.5km/h 44% 0in /  0.0mm 868 W/m2
12:55 75.6 °F /  24.2 °C 53.2 °F /  11.8 °C 30.1in /  1018.0hPa West 2.9mph /  4.7km/h 8mph /  12.9km/h 46% 0in /  0.0mm 870 W/m2
13:00 75.6 °F /  24.2 °C 52.2 °F /  11.2 °C 30.1in /  1018.0hPa NE 0.9mph /  1.4km/h 9mph /  14.5km/h 44% 0in /  0.0mm 875 W/m2
13:05 75.9 °F /  24.4 °C 53.1 °F /  11.7 °C 30.1in /  1018.0hPa ESE 2.9mph /  4.7km/h 8mph /  12.9km/h 45% 0in /  0.0mm 875 W/m2
13:11 76.1 °F /  24.5 °C 52.5 °F /  11.4 °C 30.1in /  1018.0hPa NW 4mph /  6.4km/h 9mph /  14.5km/h 44% 0in /  0.0mm 875 W/m2
13:16 76.3 °F /  24.6 °C 54 °F /  12.2 °C 30.1in /  1018.0hPa SE 2.9mph /  4.7km/h 5mph /  8km/h 46% 0in /  0.0mm 877 W/m2
13:21 76.5 °F /  24.7 °C 52.9 °F /  11.6 °C 30.1in /  1018.0hPa ENE 4mph /  6.4km/h 8mph /  12.9km/h 44% 0in /  0.0mm 879 W/m2
13:26 76.6 °F /  24.8 °C 53.1 °F /  11.7 °C 30.1in /  1018.0hPa SE 4.9mph /  7.9km/h 7mph /  11.3km/h 44% 0in /  0.0mm 881 W/m2
13:31 76.5 °F /  24.7 °C 52.3 °F /  11.3 °C 30.1in /  1018.0hPa ESE 2.9mph /  4.7km/h 11mph /  17.7km/h 43% 0in /  0.0mm 882 W/m2
13:36 76.5 °F /  24.7 °C 53.6 °F /  12 °C 30.1in /  1018.0hPa East 6.9mph /  11.1km/h 7mph /  11.3km/h 45% 0in /  0.0mm 882 W/m2
13:41 77.2 °F /  25.1 °C 54.9 °F /  12.7 °C 30.1in /  1017.6hPa East 6mph /  9.7km/h 11mph /  17.7km/h 46% 0in /  0.0mm 879 W/m2
13:46 77.4 °F /  25.2 °C 53.1 °F /  11.7 °C 30.1in /  1017.6hPa ENE 2mph /  3.2km/h 5mph /  8km/h 43% 0in /  0.0mm 884 W/m2
13:51 77.7 °F /  25.4 °C 54.1 °F /  12.3 °C 30.1in /  1017.6hPa ESE 4mph /  6.4km/h 11mph /  17.7km/h 44% 0in /  0.0mm 886 W/m2
13:56 78.1 °F /  25.6 °C 53.8 °F /  12.1 °C 30.1in /  1017.6hPa SSE 4mph /  6.4km/h 9mph /  14.5km/h 43% 0in /  0.0mm 882 W/m2
14:01 78.1 °F /  25.6 °C 53.1 °F /  11.7 °C 30.1in /  1017.6hPa East 6mph /  9.7km/h 11mph /  17.7km/h 42% 0in /  0.0mm 877 W/m2
14:06 78.1 °F /  25.6 °C 54.3 °F /  12.4 °C 30.1in /  1017.6hPa East 4.9mph /  7.9km/h 7mph /  11.3km/h 44% 0in /  0.0mm 875 W/m2
14:11 78.1 °F /  25.6 °C 53.1 °F /  11.7 °C 30.1in /  1017.6hPa ENE 2mph /  3.2km/h 6mph /  9.7km/h 42% 0in /  0.0mm 881 W/m2
14:16 78.3 °F /  25.7 °C 53.2 °F /  11.8 °C 30.1in /  1017.6hPa East 2mph /  3.2km/h 10mph /  16.1km/h 42% 0in /  0.0mm 872 W/m2
14:21 78.3 °F /  25.7 °C 53.2 °F /  11.8 °C 30in /  1017.3hPa ENE 2.9mph /  4.7km/h 6mph /  9.7km/h 42% 0in /  0.0mm 870 W/m2
14:26 78.4 °F /  25.8 °C 52.7 °F /  11.5 °C 30in /  1017.3hPa East 4mph /  6.4km/h 6mph /  9.7km/h 41% 0in /  0.0mm 868 W/m2
14:31 78.4 °F /  25.8 °C 53.4 °F /  11.9 °C 30in /  1017.3hPa ENE 0.9mph /  1.4km/h 3mph /  4.8km/h 42% 0in /  0.0mm 868 W/m2
14:36 78.8 °F /  26 °C 53.1 °F /  11.7 °C 30in /  1017.3hPa ENE 2mph /  3.2km/h 6mph /  9.7km/h 41% 0in /  0.0mm 867 W/m2
14:41 79.3 °F /  26.3 °C 52.9 °F /  11.6 °C 30in /  1017.3hPa NE 4mph /  6.4km/h 11mph /  17.7km/h 40% 0in /  0.0mm 861 W/m2
14:46 79.3 °F /  26.3 °C 52.2 °F /  11.2 °C 30in /  1017.3hPa East 2mph /  3.2km/h 10mph /  16.1km/h 39% 0in /  0.0mm 860 W/m2
14:51 79.3 °F /  26.3 °C 52.9 °F /  11.6 °C 30in /  1017.3hPa ENE 2mph /  3.2km/h 11mph /  17.7km/h 40% 0in /  0.0mm 856 W/m2
14:56 79.5 °F /  26.4 °C 54.5 °F /  12.5 °C 30in /  1017.3hPa East 2.9mph /  4.7km/h 7mph /  11.3km/h 42% 0in /  0.0mm 851 W/m2
15:01 79.7 °F /  26.5 °C 52.5 °F /  11.4 °C 30in /  1017.3hPa ENE 2mph /  3.2km/h 9mph /  14.5km/h 39% 0in /  0.0mm 851 W/m2
15:06 79.5 °F /  26.4 °C 53.1 °F /  11.7 °C 30in /  1017.3hPa East 2.9mph /  4.7km/h 9mph /  14.5km/h 40% 0in /  0.0mm 846 W/m2
15:11 79.7 °F /  26.5 °C 53.2 °F /  11.8 °C 30in /  1017.3hPa East 6.9mph /  11.1km/h 11mph /  17.7km/h 40% 0in /  0.0mm 837 W/m2
15:16 79.9 °F /  26.6 °C 52.7 °F /  11.5 °C 30in /  1016.9hPa ENE 2.9mph /  4.7km/h 8mph /  12.9km/h 39% 0in /  0.0mm 838 W/m2
15:21 79.9 °F /  26.6 °C 53.4 °F /  11.9 °C 30in /  1017.3hPa ENE 2mph /  3.2km/h 12mph /  19.3km/h 40% 0in /  0.0mm 821 W/m2
15:26 79.9 °F /  26.6 °C 53.4 °F /  11.9 °C 30in /  1016.9hPa East 2mph /  3.2km/h 9mph /  14.5km/h 40% 0in /  0.0mm 812 W/m2
15:31 80.1 °F /  26.7 °C 53.6 °F /  12 °C 30in /  1016.9hPa NE 4mph /  6.4km/h 6mph /  9.7km/h 40% 0in /  0.0mm 802 W/m2
15:36 80.1 °F /  26.7 °C 52.9 °F /  11.6 °C 30in /  1016.9hPa ENE 4mph /  6.4km/h 11mph /  17.7km/h 39% 0in /  0.0mm 798 W/m2
15:41 79.9 °F /  26.6 °C 53.4 °F /  11.9 °C 30in /  1016.9hPa East 6.9mph /  11.1km/h 9mph /  14.5km/h 40% 0in /  0.0mm 796 W/m2
15:46 79.7 °F /  26.5 °C 53.2 °F /  11.8 °C 30in /  1016.9hPa NW 2mph /  3.2km/h 5mph /  8km/h 40% 0in /  0.0mm 779 W/m2
15:51 79.9 °F /  26.6 °C 53.4 °F /  11.9 °C 30in /  1016.9hPa NE 2.9mph /  4.7km/h 11mph /  17.7km/h 40% 0in /  0.0mm 777 W/m2
15:56 79.9 °F /  26.6 °C 52.7 °F /  11.5 °C 30in /  1016.9hPa NE 4.9mph /  7.9km/h 9mph /  14.5km/h 39% 0in /  0.0mm 765 W/m2
16:01 79.9 °F /  26.6 °C 53.4 °F /  11.9 °C 30in /  1016.9hPa ENE 4mph /  6.4km/h 8mph /  12.9km/h 40% 0in /  0.0mm 759 W/m2
16:06 80.1 °F /  26.7 °C 53.6 °F /  12 °C 30in /  1016.9hPa NE 4.9mph /  7.9km/h 5mph /  8km/h 40% 0in /  0.0mm 754 W/m2
16:11 80.1 °F /  26.7 °C 52.9 °F /  11.6 °C 30in /  1016.9hPa NE 4mph /  6.4km/h 6mph /  9.7km/h 39% 0in /  0.0mm 751 W/m2
16:17 80.2 °F /  26.8 °C 52.3 °F /  11.3 °C 30in /  1016.9hPa East 2mph /  3.2km/h 8mph /  12.9km/h 38% 0in /  0.0mm 738 W/m2
16:22 80.1 °F /  26.7 °C 52.2 °F /  11.2 °C 30in /  1016.9hPa ENE 4mph /  6.4km/h 5mph /  8km/h 38% 0in /  0.0mm 737 W/m2
16:27 80.4 °F /  26.9 °C 52.5 °F /  11.4 °C 30in /  1016.9hPa East 6.9mph /  11.1km/h 11mph /  17.7km/h 38% 0in /  0.0mm 714 W/m2
16:32 80.4 °F /  26.9 °C 51.8 °F /  11 °C 30in /  1016.9hPa NE 2.9mph /  4.7km/h 14mph /  22.5km/h 37% 0in /  0.0mm 707 W/m2
16:37 80.2 °F /  26.8 °C 51.6 °F /  10.9 °C 30in /  1016.9hPa NE 2mph /  3.2km/h 7mph /  11.3km/h 37% 0in /  0.0mm 700 W/m2
16:42 80.1 °F /  26.7 °C 50.7 °F /  10.4 °C 30in /  1016.9hPa NE 0.9mph /  1.4km/h 12mph /  19.3km/h 36% 0in /  0.0mm 687 W/m2
16:47 80.4 °F /  26.9 °C 51.1 °F /  10.6 °C 30in /  1016.9hPa WNW 0.9mph /  1.4km/h 5mph /  8km/h 36% 0in /  0.0mm 679 W/m2
16:52 80.8 °F /  27.1 °C 51.3 °F /  10.7 °C 30in /  1016.6hPa NNE 10.1mph /  16.3km/h 10mph /  16.1km/h 36% 0in /  0.0mm 663 W/m2
16:57 80.8 °F /  27.1 °C 51.3 °F /  10.7 °C 30in /  1016.6hPa NE 4.9mph /  7.9km/h 8mph /  12.9km/h 36% 0in /  0.0mm 654 W/m2
17:02 80.4 °F /  26.9 °C 51.1 °F /  10.6 °C 30in /  1016.6hPa ESE 2.9mph /  4.7km/h 9mph /  14.5km/h 36% 0in /  0.0mm 643 W/m2
17:07 80.2 °F /  26.8 °C 51.6 °F /  10.9 °C 30in /  1016.6hPa SSE 4mph /  6.4km/h 7mph /  11.3km/h 37% 0in /  0.0mm 635 W/m2
17:12 80.4 °F /  26.9 °C 51.1 °F /  10.6 °C 30in /  1016.6hPa ENE 2mph /  3.2km/h 5mph /  8km/h 36% 0in /  0.0mm 617 W/m2
17:17 80.8 °F /  27.1 °C 51.3 °F /  10.7 °C 30in /  1016.6hPa NE 12.1mph /  19.5km/h 12mph /  19.3km/h 36% 0in /  0.0mm 603 W/m2
17:22 81 °F /  27.2 °C 50.7 °F /  10.4 °C 30in /  1016.6hPa NNE 2.9mph /  4.7km/h 4mph /  6.4km/h 35% 0in /  0.0mm 592 W/m2
17:27 81.5 °F /  27.5 °C 52 °F /  11.1 °C 30in /  1016.6hPa ESE 12mph /  19.3km/h 12mph /  19.3km/h 36% 0in /  0.0mm 584 W/m2
17:32 81.9 °F /  27.7 °C 51.4 °F /  10.8 °C 30in /  1016.6hPa East 2mph /  3.2km/h 3mph /  4.8km/h 35% 0in /  0.0mm 570 W/m2
17:37 81.5 °F /  27.5 °C 50.4 °F /  10.2 °C 30in /  1016.6hPa NE 4mph /  6.4km/h 6mph /  9.7km/h 34% 0in /  0.0mm 559 W/m2
17:42 80.8 °F /  27.1 °C 50.5 °F /  10.3 °C 30in /  1016.6hPa North 2mph /  3.2km/h 8mph /  12.9km/h 35% 0in /  0.0mm 545 W/m2
17:47 80.8 °F /  27.1 °C 50.5 °F /  10.3 °C 30in /  1016.6hPa NNE 2.9mph /  4.7km/h 9mph /  14.5km/h 35% 0in /  0.0mm 534 W/m2
17:52 80.8 °F /  27.1 °C 51.3 °F /  10.7 °C 30in /  1016.6hPa NE 2.9mph /  4.7km/h 4mph /  6.4km/h 36% 0in /  0.0mm 519 W/m2
17:58 80.8 °F /  27.1 °C 49.8 °F /  9.9 °C 30in /  1016.6hPa East 2mph /  3.2km/h 5mph /  8km/h 34% 0in /  0.0mm 504 W/m2
18:03 81 °F /  27.2 °C 50.7 °F /  10.4 °C 30in /  1016.6hPa NE 0.9mph /  1.4km/h 6mph /  9.7km/h 35% 0in /  0.0mm 492 W/m2
18:08 80.8 °F /  27.1 °C 49.8 °F /  9.9 °C 30in /  1016.6hPa ENE 8.1mph /  13km/h 10mph /  16.1km/h 34% 0in /  0.0mm 480 W/m2
18:13 80.6 °F /  27 °C 49.6 °F /  9.8 °C 30in /  1016.3hPa ESE 11mph /  17.7km/h 11mph /  17.7km/h 34% 0in /  0.0mm 462 W/m2
18:18 80.2 °F /  26.8 °C 50.9 °F /  10.5 °C 30in /  1016.6hPa NE 4.9mph /  7.9km/h 8mph /  12.9km/h 36% 0in /  0.0mm 445 W/m2
18:23 80.6 °F /  27 °C 50.4 °F /  10.2 °C 30in /  1016.3hPa NE 2mph /  3.2km/h 8mph /  12.9km/h 35% 0in /  0.0mm 413 W/m2
18:28 81 °F /  27.2 °C 50.7 °F /  10.4 °C 30in /  1016.3hPa ENE 2.9mph /  4.7km/h 4mph /  6.4km/h 35% 0in /  0.0mm 373 W/m2
18:33 81 °F /  27.2 °C 50 °F /  10 °C 30in /  1016.3hPa SE 2.9mph /  4.7km/h 3mph /  4.8km/h 34% 0in /  0.0mm 346 W/m2
18:38 81 °F /  27.2 °C 50 °F /  10 °C 30in /  1016.3hPa ESE 6.9mph /  11.1km/h 8mph /  12.9km/h 34% 0in /  0.0mm 323 W/m2
18:43 80.8 °F /  27.1 °C 49.8 °F /  9.9 °C 30in /  1016.3hPa NE 4mph /  6.4km/h 4mph /  6.4km/h 34% 0in /  0.0mm 304 W/m2
18:48 80.2 °F /  26.8 °C 49.3 °F /  9.6 °C 30in /  1016.3hPa ENE 2.9mph /  4.7km/h 10mph /  16.1km/h 34% 0in /  0.0mm 279 W/m2
18:53 80.1 °F /  26.7 °C 48.4 °F /  9.1 °C 30in /  1016.3hPa SE 0.9mph /  1.4km/h 8mph /  12.9km/h 33% 0in /  0.0mm 255 W/m2
18:58 80.1 °F /  26.7 °C 48.4 °F /  9.1 °C 30in /  1016.3hPa ENE 0.9mph /  1.4km/h 10mph /  16.1km/h 33% 0in /  0.0mm 241 W/m2
19:03 80.1 °F /  26.7 °C 49.1 °F /  9.5 °C 30in /  1016.3hPa East 2.9mph /  4.7km/h 5mph /  8km/h 34% 0in /  0.0mm 248 W/m2
19:08 79.9 °F /  26.6 °C 48.9 °F /  9.4 °C 30in /  1016.3hPa ENE 2.9mph /  4.7km/h 5mph /  8km/h 34% 0in /  0.0mm 267 W/m2
19:13 79.7 °F /  26.5 °C 48 °F /  8.9 °C 30in /  1016.3hPa ENE 2mph /  3.2km/h 4mph /  6.4km/h 33% 0in /  0.0mm 281 W/m2
19:18 79.7 °F /  26.5 °C 48 °F /  8.9 °C 30in /  1016.3hPa NE 0.9mph /  1.4km/h 8mph /  12.9km/h 33% 0in /  0.0mm 285 W/m2
19:23 79.9 °F /  26.6 °C 48.2 °F /  9 °C 30in /  1016.3hPa East 6.9mph /  11.1km/h 7mph /  11.3km/h 33% 0in /  0.0mm 274 W/m2
19:28 79.9 °F /  26.6 °C 48.2 °F /  9 °C 30in /  1016.3hPa North 2.9mph /  4.7km/h 6mph /  9.7km/h 33% 0in /  0.0mm 258 W/m2
19:33 79.5 °F /  26.4 °C 48.7 °F /  9.3 °C 30in /  1016.3hPa ESE 0.9mph /  1.4km/h 6mph /  9.7km/h 34% 0in /  0.0mm 234 W/m2
19:38 79.3 °F /  26.3 °C 49.3 °F /  9.6 °C 30in /  1016.3hPa NNW 4mph /  6.4km/h 5mph /  8km/h 35% 0in /  0.0mm 197 W/m2
19:43 79.3 °F /  26.3 °C 50 °F /  10 °C 30in /  1016.3hPa ENE 2.9mph /  4.7km/h 8mph /  12.9km/h 36% 0in /  0.0mm 167 W/m2
19:48 79.3 °F /  26.3 °C 50 °F /  10 °C 30in /  1016.3hPa NE 4mph /  6.4km/h 4mph /  6.4km/h 36% 0in /  0.0mm 156 W/m2
19:53 79.2 °F /  26.2 °C 48.4 °F /  9.1 °C 30in /  1016.3hPa NW 2mph /  3.2km/h 4mph /  6.4km/h 34% 0in /  0.0mm 155 W/m2
19:59 79.2 °F /  26.2 °C 49.1 °F /  9.5 °C 30in /  1016.3hPa ENE 2mph /  3.2km/h 8mph /  12.9km/h 35% 0in /  0.0mm 155 W/m2
20:04 79 °F /  26.1 °C 48.9 °F /  9.4 °C 30in /  1016.3hPa East 2.9mph /  4.7km/h 4mph /  6.4km/h 35% 0in /  0.0mm 142 W/m2
20:09 79 °F /  26.1 °C 50.5 °F /  10.3 °C 30in /  1016.3hPa Calm   2mph /  3.2km/h 37% 0in /  0.0mm 132 W/m2
20:14 79 °F /  26.1 °C 49.8 °F /  9.9 °C 30in /  1016.3hPa Calm   2mph /  3.2km/h 36% 0in /  0.0mm 116 W/m2
20:19 78.8 °F /  26 °C 49.6 °F /  9.8 °C 30in /  1016.3hPa ESE 4mph /  6.4km/h 6mph /  9.7km/h 36% 0in /  0.0mm 105 W/m2
20:24 78.4 °F /  25.8 °C 50 °F /  10 °C 30in /  1016.3hPa NNE 0.9mph /  1.4km/h 4mph /  6.4km/h 37% 0in /  0.0mm 93 W/m2
20:29 78.3 °F /  25.7 °C 50.5 °F /  10.3 °C 30in /  1016.3hPa NE 4mph /  6.4km/h 4mph /  6.4km/h 38% 0in /  0.0mm 81 W/m2
20:34 77.9 °F /  25.5 °C 50.2 °F /  10.1 °C 30in /  1016.3hPa East 0.9mph /  1.4km/h 5mph /  8km/h 38% 0in /  0.0mm 63 W/m2
20:39 77.4 °F /  25.2 °C 49.8 °F /  9.9 °C 30in /  1016.3hPa ENE 2mph /  3.2km/h 5mph /  8km/h 38% 0in /  0.0mm 54 W/m2
20:44 77.2 °F /  25.1 °C 49.6 °F /  9.8 °C 30in /  1016.3hPa East 0.9mph /  1.4km/h 8mph /  12.9km/h 38% 0in /  0.0mm 53 W/m2
20:49 76.8 °F /  24.9 °C 50 °F /  10 °C 30in /  1016.3hPa NE 2mph /  3.2km/h 4mph /  6.4km/h 39% 0in /  0.0mm 44 W/m2
20:54 76.6 °F /  24.8 °C 49.8 °F /  9.9 °C 30in /  1016.3hPa East 2.9mph /  4.7km/h 8mph /  12.9km/h 39% 0in /  0.0mm 37 W/m2
20:59 76.3 °F /  24.6 °C 50.2 °F /  10.1 °C 30in /  1016.3hPa SE 0.9mph /  1.4km/h 1mph /  1.6km/h 40% 0in /  0.0mm 26 W/m2
21:04 75.9 °F /  24.4 °C 50.5 °F /  10.3 °C 30in /  1016.3hPa ENE 2.9mph /  4.7km/h 4mph /  6.4km/h 41% 0in /  0.0mm 12 W/m2
21:09 75.6 °F /  24.2 °C 50.9 °F /  10.5 °C 30in /  1016.3hPa WSW 0.9mph /  1.4km/h 6mph /  9.7km/h 42% 0in /  0.0mm 11 W/m2
21:14 75 °F /  23.9 °C 50.4 °F /  10.2 °C 30in /  1016.3hPa ESE 0.9mph /  1.4km/h 1mph /  1.6km/h 42% 0in /  0.0mm 9 W/m2
21:19 74.7 °F /  23.7 °C 50 °F /  10 °C 30in /  1016.3hPa ESE 2mph /  3.2km/h 3mph /  4.8km/h 42% 0in /  0.0mm 7 W/m2
21:24 74.1 °F /  23.4 °C 50.2 °F /  10.1 °C 30in /  1016.3hPa East 2mph /  3.2km/h 4mph /  6.4km/h 43% 0in /  0.0mm 5 W/m2
21:29 73.8 °F /  23.2 °C 50.5 °F /  10.3 °C 30in /  1016.3hPa Calm   2mph /  3.2km/h 44% 0in /  0.0mm 0 W/m2
21:34 73.4 °F /  23 °C 50.7 °F /  10.4 °C 30in /  1016.3hPa SE 0.9mph /  1.4km/h 1mph /  1.6km/h 45% 0in /  0.0mm 0 W/m2
21:39 73 °F /  22.8 °C 49.8 °F /  9.9 °C 30in /  1016.6hPa East 2.9mph /  4.7km/h 3mph /  4.8km/h 44% 0in /  0.0mm 0 W/m2
21:44 72.7 °F /  22.6 °C 50.7 °F /  10.4 °C 30in /  1016.6hPa Calm   1mph /  1.6km/h 46% 0in /  0.0mm 0 W/m2
21:49 72.1 °F /  22.3 °C 50.2 °F /  10.1 °C 30in /  1016.6hPa ENE 0.9mph /  1.4km/h 2mph /  3.2km/h 46% 0in /  0.0mm 0 W/m2
21:55 71.8 °F /  22.1 °C 49.8 °F /  9.9 °C 30in /  1016.6hPa South 2mph /  3.2km/h 3mph /  4.8km/h 46% 0in /  0.0mm 0 W/m2
22:00 71.2 °F /  21.8 °C 50.5 °F /  10.3 °C 30in /  1016.6hPa East 0.9mph /  1.4km/h 1mph /  1.6km/h 48% 0in /  0.0mm 0 W/m2
22:05 70.7 °F /  21.5 °C 50 °F /  10 °C 30in /  1016.6hPa Calm   1mph /  1.6km/h 48% 0in /  0.0mm 0 W/m2
22:10 70.3 °F /  21.3 °C 50.4 °F /  10.2 °C 30in /  1016.6hPa Calm   1mph /  1.6km/h 49% 0in /  0.0mm 0 W/m2
22:15 69.8 °F /  21 °C 50.4 °F /  10.2 °C 30in /  1016.6hPa Calm     50% 0in /  0.0mm 0 W/m2
22:20 69.3 °F /  20.7 °C 50.9 °F /  10.5 °C 30in /  1016.6hPa East 0.9mph /  1.4km/h 1mph /  1.6km/h 52% 0in /  0.0mm 0 W/m2
22:25 68.7 °F /  20.4 °C 50.4 °F /  10.2 °C 30in /  1016.9hPa Calm     52% 0in /  0.0mm 0 W/m2
22:30 68.4 °F /  20.2 °C 50.5 °F /  10.3 °C 30in /  1016.9hPa East 0.9mph /  1.4km/h 1mph /  1.6km/h 53% 0in /  0.0mm 0 W/m2
22:35 67.6 °F /  19.8 °C 50.9 °F /  10.5 °C 30in /  1016.9hPa East 0.9mph /  1.4km/h 2mph /  3.2km/h 55% 0in /  0.0mm 0 W/m2
22:40 66.9 °F /  19.4 °C 50.7 °F /  10.4 °C 30in /  1016.9hPa East 0.9mph /  1.4km/h 2mph /  3.2km/h 56% 0in /  0.0mm 0 W/m2
22:45 66.6 °F /  19.2 °C 50.4 °F /  10.2 °C 30in /  1016.9hPa Calm     56% 0in /  0.0mm 0 W/m2
22:50 66 °F /  18.9 °C 50.4 °F /  10.2 °C 30in /  1016.9hPa Calm   2mph /  3.2km/h 57% 0in /  0.0mm 0 W/m2
22:55 65.5 °F /  18.6 °C 50.4 °F /  10.2 °C 30in /  1016.9hPa Calm   1mph /  1.6km/h 58% 0in /  0.0mm 0 W/m2
23:00 64.9 °F /  18.3 °C 50.2 °F /  10.1 °C 30in /  1016.9hPa East 0.9mph /  1.4km/h 1mph /  1.6km/h 59% 0in /  0.0mm 0 W/m2
23:05 64.6 °F /  18.1 °C 50.4 °F /  10.2 °C 30in /  1016.9hPa ESE 0.9mph /  1.4km/h 2mph /  3.2km/h 60% 0in /  0.0mm 0 W/m2
23:10 64.2 °F /  17.9 °C 50.5 °F /  10.3 °C 30in /  1016.9hPa Calm   2mph /  3.2km/h 61% 0in /  0.0mm 0 W/m2
23:15 64 °F /  17.8 °C 50.7 °F /  10.4 °C 30in /  1016.9hPa Calm   1mph /  1.6km/h 62% 0in /  0.0mm 0 W/m2
23:20 63.7 °F /  17.6 °C 50.4 °F /  10.2 °C 30in /  1016.9hPa Calm   2mph /  3.2km/h 62% 0in /  0.0mm 0 W/m2
23:25 63.3 °F /  17.4 °C 50.5 °F /  10.3 °C 30in /  1016.9hPa Calm   1mph /  1.6km/h 63% 0in /  0.0mm 0 W/m2
23:30 63 °F /  17.2 °C 50.5 °F /  10.3 °C 30in /  1016.9hPa ESE 0.9mph /  1.4km/h 1mph /  1.6km/h 64% 0in /  0.0mm 0 W/m2
23:35 62.8 °F /  17.1 °C 50.4 °F /  10.2 °C 30in /  1016.9hPa ESE 0.9mph /  1.4km/h 1mph /  1.6km/h 64% 0in /  0.0mm 0 W/m2
23:40 62.6 °F /  17 °C 50.2 °F /  10.1 °C 30in /  1016.9hPa Calm     64% 0in /  0.0mm 0 W/m2
23:45 62.4 °F /  16.9 °C 50.5 °F /  10.3 °C 30in /  1017.3hPa Calm     65% 0in /  0.0mm 0 W/m2
23:50 62.2 °F /  16.8 °C 50.4 °F /  10.2 °C 30in /  1017.3hPa Calm     65% 0in /  0.0mm 0 W/m2
23:55 62.1 °F /  16.7 °C 50.2 °F /  10.1 °C 30in /  1017.3hPa Calm     65% 0in /  0.0mm 0 W/m2
Juneau County Weather
Compliments of Weather Underground - 4 mb